Time;durP1;ratioP1;P1;durP2;ratioP2;P2;SDS_P1;SDS_P2;PMS_P1;PMS_P2;Temp;Humidity;BMP_temperature;BMP_pressure;BME280_temperature;BME280_humidity;BME280_pressure;Samples;Min_cycle;Max_cycle;Signal;HPM_P1;HPM_P2
2024/02/23 00:00:49;;;;;;;0.20;0.20;;;6.80;99.90;;;;;;4095609;28;20039;-71
2024/02/23 00:02:49;;;;;;;0.45;0.17;;;6.80;99.90;;;;;;4094636;28;20442;-71
2024/02/23 00:04:50;;;;;;;0.63;0.30;;;6.90;99.90;;;;;;4093194;28;20028;-71
2024/02/23 00:06:51;;;;;;;0.20;0.20;;;6.80;99.90;;;;;;4093647;28;20035;-71
2024/02/23 00:08:53;;;;;;;3.58;0.50;;;6.80;99.90;;;;;;4091153;28;20035;-71
2024/02/23 00:10:54;;;;;;;;;;;6.90;99.90;;;;;;4096369;28;20466;-70
2024/02/23 00:12:54;;;;;;;1.08;0.30;;;6.80;99.90;;;;;;4094091;28;19911;-71
2024/02/23 00:14:55;;;;;;;0.30;0.30;;;6.90;99.90;;;;;;4090924;28;20043;-71
2024/02/23 00:16:56;;;;;;;1.05;0.30;;;6.90;99.90;;;;;;4095315;28;20525;-71
2024/02/23 00:18:57;;;;;;;0.80;0.30;;;6.90;99.90;;;;;;4087509;28;20043;-71
2024/02/23 00:20:57;;;;;;;0.68;0.40;;;6.90;99.90;;;;;;4090733;28;20486;-71
2024/02/23 00:22:58;;;;;;;0.20;0.20;;;6.90;99.90;;;;;;4089773;28;20453;-70
2024/02/23 00:24:58;;;;;;;0.82;0.40;;;7.00;99.90;;;;;;4096398;28;20083;-70
2024/02/23 00:26:59;;;;;;;1.40;0.38;;;7.00;99.90;;;;;;4096204;28;20046;-70
2024/02/23 00:28:59;;;;;;;1.75;0.47;;;7.00;99.90;;;;;;4095968;28;20043;-69
2024/02/23 00:31:00;;;;;;;1.35;0.40;;;7.00;99.90;;;;;;4093897;28;20396;-70
2024/02/23 00:33:01;;;;;;;1.40;0.73;;;7.00;99.90;;;;;;4095748;28;20595;-70
2024/02/23 00:35:02;;;;;;;1.02;0.55;;;7.00;99.90;;;;;;4093094;28;20449;-70
2024/02/23 00:37:03;;;;;;;0.82;0.60;;;6.90;99.90;;;;;;4095477;28;20036;-70
2024/02/23 00:39:04;;;;;;;2.90;0.85;;;7.00;99.90;;;;;;4096295;28;20416;-70
2024/02/23 00:41:04;;;;;;;1.10;0.65;;;7.00;99.90;;;;;;4095940;28;20066;-70
2024/02/23 00:43:05;;;;;;;3.75;0.68;;;7.00;99.90;;;;;;4095277;28;20050;-70
2024/02/23 00:45:06;;;;;;;2.30;0.77;;;7.00;99.90;;;;;;4094454;28;20028;-70
2024/02/23 00:47:07;;;;;;;1.35;0.70;;;7.00;99.90;;;;;;4093536;28;20115;-70
2024/02/23 00:49:08;;;;;;;1.00;0.60;;;7.00;99.90;;;;;;4095849;28;20547;-70
2024/02/23 00:51:08;;;;;;;1.15;0.63;;;7.00;99.90;;;;;;4095515;28;20087;-70
2024/02/23 00:53:09;;;;;;;2.35;0.70;;;7.00;99.90;;;;;;4095622;28;20047;-69
2024/02/23 00:55:10;;;;;;;0.93;0.50;;;6.90;99.90;;;;;;4096151;28;20047;-70
2024/02/23 00:57:11;;;;;;;1.02;0.45;;;6.90;99.90;;;;;;4094034;28;20473;-71
2024/02/23 00:59:11;;;;;;;1.55;0.73;;;6.90;99.90;;;;;;4093355;28;20466;-71
2024/02/23 01:01:12;;;;;;;1.20;0.57;;;6.90;99.90;;;;;;4096221;28;20401;-71
2024/02/23 01:03:13;;;;;;;0.95;0.70;;;6.90;99.90;;;;;;4096840;28;20043;-68
2024/02/23 01:05:14;;;;;;;1.48;0.45;;;6.90;99.90;;;;;;4095477;28;20047;-70
2024/02/23 01:07:14;;;;;;;1.17;0.60;;;6.90;99.90;;;;;;4098537;28;20127;-70
2024/02/23 01:09:16;;;;;;;2.22;0.80;;;6.90;99.90;;;;;;4098077;28;20047;-70
2024/02/23 01:11:17;;;;;;;2.15;0.60;;;6.90;99.90;;;;;;4094997;28;20520;-70
2024/02/23 01:13:18;;;;;;;2.10;0.63;;;6.90;99.90;;;;;;4096684;28;20086;-70
2024/02/23 01:15:19;;;;;;;1.75;0.60;;;6.90;99.90;;;;;;4096399;28;20524;-70
2024/02/23 01:17:19;;;;;;;1.75;0.57;;;7.00;99.90;;;;;;4099090;28;20118;-70
2024/02/23 01:19:20;;;;;;;1.10;0.40;;;7.00;99.90;;;;;;4095292;28;20039;-70
2024/02/23 01:21:21;;;;;;;3.22;0.93;;;7.00;99.90;;;;;;4078384;29;20064;-70
2024/02/23 01:23:21;;;;;;;2.70;0.60;;;7.00;99.90;;;;;;4083682;29;20103;-70
2024/02/23 01:25:22;;;;;;;2.33;0.77;;;6.90;99.90;;;;;;4095190;28;20042;-70
2024/02/23 01:27:22;;;;;;;1.90;0.82;;;7.00;99.90;;;;;;4094932;28;20114;-70
2024/02/23 01:29:25;;;;;;;2.75;0.80;;;7.00;99.90;;;;;;4095875;28;20045;-70
2024/02/23 01:31:26;;;;;;;1.90;0.73;;;7.00;99.90;;;;;;4094813;28;20035;-70
2024/02/23 01:33:26;;;;;;;3.35;0.75;;;7.00;99.90;;;;;;4095104;28;20085;-68
2024/02/23 01:35:27;;;;;;;0.82;0.40;;;7.00;99.90;;;;;;4094627;28;20166;-68
2024/02/23 01:37:27;;;;;;;3.33;0.52;;;7.00;99.90;;;;;;4093208;28;20393;-68
2024/02/23 01:39:28;;;;;;;2.00;0.80;;;6.90;99.90;;;;;;4094799;28;20054;-69
2024/02/23 01:41:29;;;;;;;2.50;0.50;;;6.90;99.90;;;;;;4095362;28;20028;-68
2024/02/23 01:43:29;;;;;;;2.35;0.60;;;6.90;99.90;;;;;;4083551;28;20513;-68
2024/02/23 01:45:31;;;;;;;6.25;1.00;;;6.90;99.90;;;;;;4091741;28;20478;-68
2024/02/23 01:47:31;;;;;;;2.45;0.68;;;6.90;99.90;;;;;;4096785;28;20039;-69
2024/02/23 01:49:34;;;;;;;1.65;0.60;;;6.90;99.90;;;;;;4092129;28;20039;-68
2024/02/23 01:51:35;;;;;;;;;;;6.90;99.90;;;;;;4098420;28;20121;-69
2024/02/23 01:53:36;;;;;;;2.60;0.88;;;6.90;99.90;;;;;;4095357;28;20287;-68
2024/02/23 01:55:37;;;;;;;4.47;0.85;;;6.90;99.90;;;;;;4092482;28;20042;-68
2024/02/23 01:57:39;;;;;;;3.08;0.65;;;6.90;99.90;;;;;;4093636;28;20039;-69
2024/02/23 01:59:40;;;;;;;3.15;0.82;;;6.90;99.90;;;;;;4095740;28;20039;-68
2024/02/23 02:01:43;;;;;;;5.05;0.80;;;6.80;99.90;;;;;;4081015;29;20036;-68
2024/02/23 02:03:44;;;;;;;2.25;0.70;;;6.80;99.90;;;;;;4092736;28;20028;-68
2024/02/23 02:05:45;;;;;;;2.40;0.70;;;6.90;99.90;;;;;;4091064;28;20126;-68
2024/02/23 02:07:50;;;;;;;3.58;0.80;;;6.90;99.90;;;;;;4096243;28;20110;-69
2024/02/23 02:09:51;;;;;;;4.68;1.23;;;7.00;99.90;;;;;;4094450;28;20446;-69
2024/02/23 02:11:51;;;;;;;4.80;1.02;;;7.00;99.90;;;;;;4095274;28;20042;-68
2024/02/23 02:13:52;;;;;;;3.42;0.80;;;7.00;99.90;;;;;;4089781;28;20069;-68
2024/02/23 02:15:53;;;;;;;3.35;1.05;;;6.90;99.90;;;;;;4085898;28;20405;-68
2024/02/23 02:17:53;;;;;;;1.75;0.68;;;7.00;99.90;;;;;;4095322;28;20036;-68
2024/02/23 02:19:54;;;;;;;1.92;0.73;;;6.90;99.90;;;;;;4094818;28;20102;-68
2024/02/23 02:21:56;;;;;;;2.17;0.80;;;6.90;99.90;;;;;;4093042;28;20506;-68
2024/02/23 02:23:56;;;;;;;1.75;0.70;;;6.90;99.90;;;;;;4095200;28;20039;-71
2024/02/23 02:25:58;;;;;;;4.53;0.90;;;6.90;99.90;;;;;;4093155;28;20027;-71
2024/02/23 02:27:59;;;;;;;2.30;0.93;;;6.80;99.90;;;;;;4096812;28;20074;-71
2024/02/23 02:29:59;;;;;;;2.47;0.90;;;6.90;99.90;;;;;;4095311;28;20043;-71
2024/02/23 02:32:00;;;;;;;1.90;0.73;;;6.80;99.90;;;;;;4093890;28;20031;-71
2024/02/23 02:34:00;;;;;;;2.53;0.82;;;6.80;99.90;;;;;;4077723;29;20111;-67
2024/02/23 02:36:01;;;;;;;3.00;1.00;;;6.70;99.90;;;;;;4095410;28;20464;-66
2024/02/23 02:38:01;;;;;;;2.53;0.90;;;6.70;99.90;;;;;;4093530;28;20034;-66
2024/02/23 02:40:03;;;;;;;2.33;0.60;;;6.70;99.90;;;;;;4094732;28;20125;-69
2024/02/23 02:42:04;;;;;;;7.75;1.13;;;6.70;99.90;;;;;;4095686;28;20094;-68
2024/02/23 02:44:04;;;;;;;5.38;0.85;;;6.70;99.90;;;;;;4087371;29;20044;-68
2024/02/23 02:46:05;;;;;;;4.18;1.17;;;6.70;99.90;;;;;;4090214;28;20047;-67
2024/02/23 02:48:06;;;;;;;3.67;1.00;;;6.70;99.90;;;;;;4074514;29;20398;-69
2024/02/23 02:50:07;;;;;;;3.30;0.93;;;6.70;99.90;;;;;;4090542;28;20043;-68
2024/02/23 02:52:08;;;;;;;2.72;0.98;;;6.70;99.90;;;;;;4090497;28;20446;-68
2024/02/23 02:54:09;;;;;;;3.38;0.85;;;6.60;99.90;;;;;;4094815;28;20043;-69
2024/02/23 02:56:09;;;;;;;3.33;0.80;;;6.70;99.90;;;;;;4075354;29;20405;-68
2024/02/23 02:58:13;;;;;;;2.95;0.63;;;6.60;99.90;;;;;;4095628;28;20039;-68
2024/02/23 03:00:14;;;;;;;0.63;0.32;;;6.70;99.90;;;;;;4093302;28;20038;-68
2024/02/23 03:02:14;;;;;;;3.13;0.70;;;6.70;99.90;;;;;;4093558;28;20035;-69
2024/02/23 03:04:15;;;;;;;2.42;0.73;;;6.70;99.90;;;;;;4094804;28;20039;-68
2024/02/23 03:06:16;;;;;;;5.53;1.15;;;6.60;99.90;;;;;;4093845;28;20035;-69
2024/02/23 03:08:16;;;;;;;3.97;0.75;;;6.60;99.90;;;;;;4093224;28;20533;-69
2024/02/23 03:10:17;;;;;;;2.45;0.52;;;6.60;99.90;;;;;;4092780;28;20507;-68
2024/02/23 03:12:18;;;;;;;3.50;0.70;;;6.60;99.90;;;;;;4095716;28;20757;-68
2024/02/23 03:14:20;;;;;;;4.90;0.63;;;6.60;99.90;;;;;;4091912;28;20043;-68
2024/02/23 03:16:23;;;;;;;3.17;0.80;;;6.60;99.90;;;;;;4096081;28;20031;-69
2024/02/23 03:18:23;;;;;;;;;;;6.50;99.90;;;;;;4096676;28;20063;-68
2024/02/23 03:20:24;;;;;;;4.60;0.90;;;6.50;99.90;;;;;;4096757;28;20214;-68
2024/02/23 03:22:24;;;;;;;3.55;0.90;;;6.50;99.90;;;;;;4097168;28;20420;-68
2024/02/23 03:24:25;;;;;;;4.10;1.10;;;6.50;99.90;;;;;;4095864;28;20031;-68
2024/02/23 03:26:26;;;;;;;4.05;0.85;;;6.50;99.90;;;;;;4092052;28;20075;-69
2024/02/23 03:28:27;;;;;;;4.65;1.00;;;6.50;99.90;;;;;;4097231;28;20035;-68
2024/02/23 03:30:27;;;;;;;3.65;0.70;;;6.50;99.90;;;;;;4096616;28;20054;-68
2024/02/23 03:32:28;;;;;;;3.38;0.98;;;6.50;99.90;;;;;;4098003;28;20393;-68
2024/02/23 03:34:28;;;;;;;3.33;1.40;;;6.50;99.90;;;;;;4096637;28;20059;-68
2024/02/23 03:36:29;;;;;;;2.50;0.80;;;6.60;99.90;;;;;;4096686;28;20039;-68
2024/02/23 03:38:29;;;;;;;2.60;0.68;;;6.50;99.90;;;;;;4096930;28;20401;-68
2024/02/23 03:40:30;;;;;;;3.55;0.88;;;6.50;99.90;;;;;;4096425;28;20644;-68
2024/02/23 03:42:31;;;;;;;1.90;0.55;;;6.60;99.90;;;;;;4097581;28;20159;-68
2024/02/23 03:44:31;;;;;;;3.75;0.80;;;6.50;99.90;;;;;;4097553;28;20046;-70
2024/02/23 03:46:32;;;;;;;3.10;1.02;;;6.60;99.90;;;;;;4096636;28;20396;-70
2024/02/23 03:48:32;;;;;;;3.50;0.98;;;6.50;99.90;;;;;;4097169;28;20032;-70
2024/02/23 03:50:33;;;;;;;1.80;0.80;;;6.50;99.90;;;;;;4095859;28;20031;-69
2024/02/23 03:52:34;;;;;;;4.85;1.10;;;6.50;99.90;;;;;;4094392;28;20035;-70
2024/02/23 03:54:34;;;;;;;4.72;0.90;;;6.50;99.90;;;;;;4096740;28;20042;-70
2024/02/23 03:56:41;;;;;;;0.93;0.50;;;6.50;99.90;;;;;;4094862;28;20500;-71
2024/02/23 03:58:42;;;;;;;3.78;0.68;;;6.50;99.90;;;;;;4095572;28;20059;-70
2024/02/23 04:00:43;;;;;;;4.20;0.73;;;6.50;99.90;;;;;;4095604;28;20043;-71
2024/02/23 04:02:44;;;;;;;8.55;1.13;;;6.50;99.90;;;;;;4097289;28;20035;-71
2024/02/23 04:04:45;;;;;;;3.80;1.10;;;6.50;99.90;;;;;;4101577;28;20500;-69
2024/02/23 04:09:42;;;;;;;4.53;0.70;;;6.60;99.90;;;;;;4087539;28;20042;-71
2024/02/23 04:11:43;;;;;;;2.25;0.70;;;6.50;99.90;;;;;;4095564;28;20032;-71
2024/02/23 04:13:43;;;;;;;4.03;0.73;;;6.50;99.90;;;;;;4096338;28;20023;-71
2024/02/23 04:15:44;;;;;;;2.60;0.98;;;6.60;99.90;;;;;;4093919;28;20043;-71
2024/02/23 04:17:46;;;;;;;3.22;1.15;;;6.60;99.90;;;;;;4096407;28;20058;-71
2024/02/23 04:19:46;;;;;;;2.75;1.08;;;6.60;99.90;;;;;;4095737;28;20050;-72
2024/02/23 04:21:47;;;;;;;5.50;1.35;;;6.60;99.90;;;;;;4094971;28;20028;-70
2024/02/23 04:23:48;;;;;;;3.92;1.08;;;6.60;99.90;;;;;;4096249;28;20453;-72
2024/02/23 04:25:50;;;;;;;2.63;0.82;;;6.60;99.90;;;;;;4095931;28;20035;-72
2024/02/23 04:27:51;;;;;;;;;;;6.60;99.90;;;;;;4096319;28;20041;-72
2024/02/23 04:29:51;;;;;;;6.25;1.38;;;6.60;99.90;;;;;;4095078;28;20347;-72
2024/02/23 04:31:52;;;;;;;7.57;1.30;;;6.70;99.90;;;;;;4091233;28;20032;-71
2024/02/23 04:33:52;;;;;;;4.80;1.17;;;6.70;99.90;;;;;;4099484;28;20031;-71
2024/02/23 04:35:53;;;;;;;4.82;0.90;;;6.70;99.90;;;;;;4095535;28;20393;-70
2024/02/23 04:37:54;;;;;;;5.28;1.45;;;6.60;99.90;;;;;;4098111;28;20436;-70
2024/02/23 04:39:54;;;;;;;4.68;1.17;;;6.70;99.90;;;;;;4096418;28;20034;-71
2024/02/23 04:41:55;;;;;;;6.68;1.15;;;6.60;99.90;;;;;;4094420;28;20040;-71
2024/02/23 04:43:59;;;;;;;5.18;1.30;;;6.60;99.90;;;;;;4088297;28;20413;-71
2024/02/23 04:46:00;;;;;;;8.10;1.55;;;6.70;99.90;;;;;;4082079;29;20043;-70
2024/02/23 04:48:01;;;;;;;11.30;1.73;;;6.70;99.90;;;;;;4095108;28;20378;-71
2024/02/23 04:50:03;;;;;;;5.28;1.15;;;6.60;99.90;;;;;;4095181;28;20122;-71
2024/02/23 04:52:05;;;;;;;4.38;1.20;;;6.60;99.90;;;;;;4095062;28;20031;-71
2024/02/23 04:54:06;;;;;;;6.18;0.93;;;6.70;99.90;;;;;;4096841;28;20082;-71
2024/02/23 04:56:06;;;;;;;4.32;0.93;;;6.60;99.90;;;;;;4099224;28;20477;-72
2024/02/23 04:58:07;;;;;;;4.10;0.98;;;6.60;99.90;;;;;;4096277;28;20053;-71
2024/02/23 05:00:08;;;;;;;8.10;1.15;;;6.60;99.90;;;;;;4095344;28;20442;-71
2024/02/23 05:02:09;;;;;;;4.90;1.00;;;6.60;99.90;;;;;;4092269;28;20106;-70
2024/02/23 05:04:09;;;;;;;4.43;1.05;;;6.60;99.90;;;;;;4102584;28;20102;-71
2024/02/23 05:06:10;;;;;;;4.90;1.20;;;6.60;99.90;;;;;;4094567;28;20062;-70
2024/02/23 05:08:10;;;;;;;4.30;1.00;;;6.60;99.90;;;;;;4093319;28;20035;-70
2024/02/23 05:10:11;;;;;;;4.32;1.02;;;6.60;99.90;;;;;;4092778;28;20126;-70
2024/02/23 05:12:12;;;;;;;5.97;1.80;;;6.50;99.90;;;;;;4094044;28;20055;-71
2024/02/23 05:14:13;;;;;;;6.20;1.23;;;6.60;99.90;;;;;;4095787;28;20066;-70
2024/02/23 05:16:16;;;;;;;3.53;1.10;;;6.50;99.90;;;;;;4095149;28;20051;-71
2024/02/23 05:18:17;;;;;;;8.73;1.45;;;6.50;99.90;;;;;;4094995;28;20042;-71
2024/02/23 05:20:17;;;;;;;5.20;1.10;;;6.50;99.90;;;;;;4096838;28;20417;-70
2024/02/23 05:22:19;;;;;;;5.43;1.10;;;6.50;99.90;;;;;;4095740;28;20553;-70
2024/02/23 05:24:20;;;;;;;4.63;1.00;;;6.60;99.90;;;;;;4095138;28;20036;-68
2024/02/23 05:26:20;;;;;;;4.53;0.88;;;6.60;99.90;;;;;;4094326;28;20031;-68
2024/02/23 05:28:21;;;;;;;5.30;1.23;;;6.60;99.90;;;;;;4095849;28;20043;-68
2024/02/23 05:30:22;;;;;;;5.50;1.35;;;6.60;99.90;;;;;;4090749;28;20098;-68
2024/02/23 05:32:22;;;;;;;7.88;1.50;;;6.60;99.90;;;;;;4091726;28;20051;-68
2024/02/23 05:34:23;;;;;;;4.75;1.23;;;6.60;99.90;;;;;;4096546;28;20043;-66
2024/02/23 05:36:23;;;;;;;3.40;1.05;;;6.60;99.90;;;;;;4093501;28;20477;-66
2024/02/23 05:38:24;;;;;;;4.75;1.05;;;6.60;99.90;;;;;;4092729;28;20396;-68
2024/02/23 05:40:24;;;;;;;5.30;1.48;;;6.60;99.90;;;;;;4092195;28;20502;-66
2024/02/23 05:42:26;;;;;;;4.03;1.27;;;6.60;99.90;;;;;;4077526;28;20043;-67
2024/02/23 05:44:27;;;;;;;3.65;0.93;;;6.70;99.90;;;;;;4065910;29;20088;-68
2024/02/23 05:46:27;;;;;;;4.93;1.13;;;6.70;99.90;;;;;;4093887;28;20532;-68
2024/02/23 05:48:28;;;;;;;5.20;1.00;;;6.60;99.90;;;;;;4096112;28;20090;-70
2024/02/23 05:50:28;;;;;;;3.70;0.90;;;6.60;99.90;;;;;;4101602;28;20117;-68
2024/02/23 05:52:31;;;;;;;4.05;1.33;;;6.70;99.90;;;;;;4095701;28;20043;-67
2024/02/23 05:54:31;;;;;;;4.10;1.00;;;6.60;99.90;;;;;;4093061;28;20505;-70
2024/02/23 05:56:32;;;;;;;2.33;0.70;;;6.70;99.90;;;;;;4093598;28;20090;-70
2024/02/23 05:58:33;;;;;;;9.73;1.30;;;6.70;99.90;;;;;;4092717;28;20082;-70
2024/02/23 06:00:34;;;;;;;3.22;0.95;;;6.70;99.90;;;;;;4094527;28;20047;-71
2024/02/23 06:02:34;;;;;;;5.82;1.27;;;6.70;99.90;;;;;;4095493;28;20043;-70
2024/02/23 06:04:35;;;;;;;6.40;1.42;;;6.80;99.90;;;;;;4092102;28;20027;-70
2024/02/23 06:06:35;;;;;;;8.50;1.67;;;6.70;99.90;;;;;;4088993;28;21044;-71
2024/02/23 06:08:37;;;;;;;6.63;1.25;;;6.80;99.90;;;;;;4093478;28;20413;-70
2024/02/23 06:10:37;;;;;;;3.83;0.75;;;6.70;99.90;;;;;;4092058;28;20038;-70
2024/02/23 06:12:38;;;;;;;4.63;1.15;;;6.80;99.90;;;;;;4093353;28;20416;-70
2024/02/23 06:14:39;;;;;;;4.30;0.95;;;6.80;99.90;;;;;;4091542;28;20027;-68
2024/02/23 06:16:40;;;;;;;5.18;1.35;;;6.90;99.90;;;;;;4089659;28;20122;-70
2024/02/23 06:18:41;;;;;;;6.20;1.10;;;6.90;99.90;;;;;;4090752;28;20462;-67
2024/02/23 06:20:41;;;;;;;5.93;1.00;;;6.90;99.90;;;;;;4089161;28;20031;-70
2024/02/23 06:22:42;;;;;;;4.63;0.98;;;6.90;99.90;;;;;;4089413;28;20133;-68
2024/02/23 06:24:43;;;;;;;6.85;1.30;;;6.90;99.90;;;;;;4087024;28;20521;-69
2024/02/23 06:26:43;;;;;;;3.00;0.82;;;6.90;99.90;;;;;;4070952;29;20421;-68
2024/02/23 06:28:44;;;;;;;5.85;0.90;;;6.90;99.90;;;;;;4086811;28;20131;-68
2024/02/23 06:30:44;;;;;;;2.63;0.82;;;6.90;99.90;;;;;;4089020;28;20497;-67
2024/02/23 06:32:45;;;;;;;4.97;1.20;;;6.90;99.90;;;;;;4093552;28;20441;-70
2024/02/23 06:34:46;;;;;;;5.13;1.40;;;7.00;99.90;;;;;;4087312;28;20409;-70
2024/02/23 06:36:46;;;;;;;5.72;1.50;;;7.00;99.90;;;;;;4092759;28;20039;-70
2024/02/23 06:38:47;;;;;;;4.97;0.75;;;7.00;99.90;;;;;;4093324;28;20115;-70
2024/02/23 06:40:48;;;;;;;4.90;1.33;;;7.00;99.90;;;;;;4095449;28;20039;-70
2024/02/23 06:42:50;;;;;;;5.97;1.80;;;7.00;99.90;;;;;;4090502;28;20458;-70
2024/02/23 06:44:50;;;;;;;6.75;1.52;;;7.00;99.90;;;;;;4093030;28;20486;-70
2024/02/23 06:46:51;;;;;;;5.82;1.40;;;7.00;99.90;;;;;;4085437;28;20039;-70
2024/02/23 06:48:51;;;;;;;4.80;1.30;;;7.00;99.90;;;;;;4091176;28;20114;-70
2024/02/23 06:50:52;;;;;;;4.82;1.30;;;7.10;99.90;;;;;;4090359;28;20023;-70
2024/02/23 06:52:53;;;;;;;4.13;1.52;;;7.10;99.90;;;;;;4092864;28;20041;-70
2024/02/23 06:54:53;;;;;;;4.35;1.20;;;7.10;99.90;;;;;;4087103;28;20028;-68
2024/02/23 06:56:54;;;;;;;6.00;1.00;;;7.10;99.90;;;;;;4085940;28;20131;-69
2024/02/23 06:58:55;;;;;;;5.07;1.40;;;7.10;99.90;;;;;;4079031;28;20105;-69
2024/02/23 07:00:55;;;;;;;5.38;1.30;;;7.10;99.90;;;;;;4088606;28;20060;-69
2024/02/23 07:02:58;;;;;;;5.80;1.77;;;7.10;99.90;;;;;;4092801;28;20118;-68
2024/02/23 07:04:59;;;;;;;5.00;1.10;;;7.10;99.90;;;;;;4092517;28;20570;-68
2024/02/23 07:07:06;;;;;;;3.85;0.98;;;7.20;99.90;;;;;;4090177;28;20042;-70
2024/02/23 07:09:07;;;;;;;4.65;1.30;;;7.20;99.90;;;;;;4089812;28;20584;-68
2024/02/23 07:11:08;;;;;;;3.50;1.45;;;7.20;99.90;;;;;;4086274;28;20427;-69
2024/02/23 07:13:10;;;;;;;5.45;1.30;;;7.20;99.90;;;;;;4091524;28;20054;-69
2024/02/23 07:15:11;;;;;;;6.85;1.35;;;7.20;99.90;;;;;;4089206;28;20046;-69
2024/02/23 07:17:11;;;;;;;3.75;1.17;;;7.20;99.90;;;;;;4093398;28;20039;-68
2024/02/23 07:19:12;;;;;;;4.18;1.10;;;7.20;99.90;;;;;;4089303;28;20035;-69
2024/02/23 07:21:13;;;;;;;3.42;0.80;;;7.20;99.90;;;;;;4093016;28;20039;-68
2024/02/23 07:23:16;;;;;;;5.18;1.10;;;7.30;99.90;;;;;;4093682;28;20039;-69
2024/02/23 07:25:17;;;;;;;2.55;0.77;;;7.30;99.90;;;;;;4092810;28;20118;-70
2024/02/23 07:27:18;;;;;;;5.07;0.93;;;7.30;99.90;;;;;;4094726;28;20444;-70
2024/02/23 07:29:19;;;;;;;5.43;1.20;;;7.20;99.90;;;;;;4090920;28;20051;-70
2024/02/23 07:31:19;;;;;;;7.35;1.60;;;7.30;99.90;;;;;;4091494;28;20192;-70
2024/02/23 07:33:20;;;;;;;4.43;1.00;;;7.20;99.90;;;;;;4095220;28;20031;-70
2024/02/23 07:35:21;;;;;;;7.03;1.50;;;7.30;99.90;;;;;;4093244;28;20055;-70
2024/02/23 07:37:22;;;;;;;3.55;1.20;;;7.30;99.90;;;;;;4094319;28;20294;-70
2024/02/23 07:39:22;;;;;;;4.72;1.00;;;7.30;99.90;;;;;;4078225;28;20486;-69
2024/02/23 07:41:23;;;;;;;3.75;1.10;;;7.30;99.90;;;;;;4095881;28;20506;-70
2024/02/23 07:43:24;;;;;;;4.20;0.90;;;7.30;99.90;;;;;;4076509;29;20061;-70
2024/02/23 07:45:26;;;;;;;3.83;1.20;;;7.40;99.90;;;;;;4092264;28;20039;-70
2024/02/23 07:47:27;;;;;;;3.07;1.20;;;7.30;99.90;;;;;;4088481;28;20071;-69
2024/02/23 07:49:28;;;;;;;5.32;1.65;;;7.40;99.90;;;;;;4086964;28;20315;-69
2024/02/23 07:51:28;;;;;;;4.03;1.08;;;7.40;99.90;;;;;;4087190;28;20035;-70
2024/02/23 07:53:29;;;;;;;7.38;1.50;;;7.40;99.90;;;;;;4094212;28;20105;-70
2024/02/23 07:55:30;;;;;;;3.20;0.93;;;7.50;99.90;;;;;;4080851;28;20043;-70
2024/02/23 07:57:31;;;;;;;9.30;1.52;;;7.50;99.90;;;;;;4092224;28;20453;-70
2024/02/23 07:59:32;;;;;;;4.70;1.05;;;7.50;99.90;;;;;;4093706;28;20053;-70
2024/02/23 08:01:34;;;;;;;4.47;1.10;;;7.50;99.90;;;;;;4094546;28;20174;-69
2024/02/23 08:03:34;;;;;;;5.85;1.08;;;7.50;99.90;;;;;;4093042;28;20063;-68
2024/02/23 08:05:35;;;;;;;5.80;1.17;;;7.50;99.90;;;;;;4099265;28;20118;-70
2024/02/23 08:07:35;;;;;;;4.07;1.13;;;7.50;99.90;;;;;;4082985;28;20043;-70
2024/02/23 08:09:36;;;;;;;6.55;1.33;;;7.50;99.90;;;;;;4096389;28;20405;-70
2024/02/23 08:11:37;;;;;;;4.18;1.13;;;7.50;99.90;;;;;;4100742;28;20070;-70
2024/02/23 08:13:38;;;;;;;3.90;1.25;;;7.50;99.90;;;;;;4096928;28;20063;-70
2024/02/23 08:15:38;;;;;;;3.83;0.93;;;7.40;99.90;;;;;;4099141;28;20816;-68
2024/02/23 08:17:39;;;;;;;3.15;1.02;;;7.50;99.90;;;;;;4100964;28;20039;-74
2024/02/23 08:19:39;;;;;;;4.22;1.10;;;7.50;99.90;;;;;;4099314;28;20039;-69
2024/02/23 08:21:41;;;;;;;4.95;1.15;;;7.60;99.90;;;;;;4098784;28;20408;-68
2024/02/23 08:23:44;;;;;;;4.68;1.33;;;7.70;99.90;;;;;;4088157;28;20489;-69
2024/02/23 08:25:45;;;;;;;5.90;1.30;;;8.10;99.90;;;;;;4098648;28;20445;-70
2024/02/23 08:27:46;;;;;;;5.55;1.20;;;8.40;99.90;;;;;;4095240;28;20035;-70
2024/02/23 08:29:46;;;;;;;4.85;0.90;;;8.40;99.90;;;;;;4094326;28;20047;-69
2024/02/23 08:31:47;;;;;;;3.25;1.10;;;8.50;99.90;;;;;;4093830;28;20031;-70
2024/02/23 08:33:48;;;;;;;2.78;0.88;;;8.60;99.90;;;;;;4093230;28;20109;-67
2024/02/23 08:35:48;;;;;;;4.07;1.00;;;8.60;99.90;;;;;;4070474;28;20043;-70
2024/02/23 08:37:49;;;;;;;4.55;0.80;;;8.70;99.90;;;;;;4096988;28;20066;-70
2024/02/23 08:39:50;;;;;;;5.03;1.15;;;8.70;99.90;;;;;;4096281;28;20047;-70
2024/02/23 08:41:52;;;;;;;5.68;1.20;;;8.70;99.90;;;;;;4094586;28;21360;-70
2024/02/23 08:43:52;;;;;;;4.03;1.05;;;8.60;99.90;;;;;;4099086;28;20035;-70
2024/02/23 08:45:53;;;;;;;2.38;0.90;;;8.50;99.90;;;;;;4084552;28;20031;-70
2024/02/23 08:47:53;;;;;;;4.38;1.15;;;8.50;99.90;;;;;;4096204;28;20035;-70
2024/02/23 08:49:54;;;;;;;3.95;0.90;;;8.50;99.90;;;;;;4097952;28;20428;-70
2024/02/23 08:51:56;;;;;;;3.80;1.25;;;8.40;99.90;;;;;;4095684;28;20049;-70
2024/02/23 08:54:02;;;;;;;4.13;1.13;;;8.40;99.90;;;;;;4100510;28;20040;-70
2024/02/23 08:56:04;;;;;;;5.70;1.20;;;8.40;99.90;;;;;;4098775;28;20041;-70
2024/02/23 08:58:05;;;;;;;4.00;1.20;;;8.40;99.90;;;;;;4096055;28;20039;-70
2024/02/23 09:00:07;;;;;;;6.05;1.48;;;8.40;99.90;;;;;;4094738;28;20042;-70
2024/02/23 09:02:09;;;;;;;4.70;0.95;;;8.40;99.90;;;;;;4099139;28;20121;-70
2024/02/23 09:04:10;;;;;;;4.28;1.20;;;8.50;99.90;;;;;;4080364;28;20070;-70
2024/02/23 09:06:10;;;;;;;3.15;1.15;;;8.50;99.90;;;;;;4095812;28;20027;-70
2024/02/23 09:08:11;;;;;;;4.28;1.15;;;8.50;99.90;;;;;;4097059;28;20127;-70
2024/02/23 09:10:12;;;;;;;1.98;0.70;;;8.50;99.90;;;;;;4097107;28;20441;-70
2024/02/23 09:12:14;;;;;;;3.38;1.00;;;8.50;99.90;;;;;;4101729;28;20038;-70
2024/02/23 09:14:15;;;;;;;3.35;1.02;;;8.50;99.90;;;;;;4083266;28;20035;-70
2024/02/23 09:16:15;;;;;;;2.55;0.90;;;8.50;99.90;;;;;;4097040;28;20454;-70
2024/02/23 09:18:16;;;;;;;9.52;1.70;;;8.60;99.90;;;;;;4099201;28;20814;-70
2024/02/23 09:20:17;;;;;;;3.95;1.38;;;8.60;99.90;;;;;;4096912;28;20034;-70
2024/02/23 09:22:18;;;;;;;4.57;0.93;;;8.70;99.90;;;;;;4095284;28;20478;-70
2024/02/23 09:24:18;;;;;;;4.43;0.90;;;8.60;99.90;;;;;;4083667;28;20071;-70
2024/02/23 09:26:19;;;;;;;3.75;1.00;;;8.60;99.90;;;;;;4098698;28;20043;-70
2024/02/23 09:28:20;;;;;;;4.32;0.88;;;8.60;99.90;;;;;;4099636;28;20027;-70
2024/02/23 09:30:21;;;;;;;5.18;1.40;;;8.60;99.90;;;;;;4095268;28;20094;-70
2024/02/23 09:32:21;;;;;;;4.20;1.10;;;8.50;99.90;;;;;;4081208;29;20462;-70
2024/02/23 09:34:22;;;;;;;3.40;0.88;;;8.50;99.90;;;;;;4092182;28;20046;-70
2024/02/23 09:36:22;;;;;;;3.58;1.20;;;8.50;99.90;;;;;;4095028;28;20069;-70
2024/02/23 09:38:24;;;;;;;8.48;1.52;;;8.50;99.90;;;;;;4095197;28;20051;-69
2024/02/23 09:40:25;;;;;;;3.37;1.43;;;8.50;99.90;;;;;;4096414;28;20035;-69
2024/02/23 09:42:28;;;;;;;4.75;1.13;;;8.50;99.90;;;;;;4095827;28;20275;-69
2024/02/23 09:44:34;;;;;;;3.20;1.00;;;8.50;99.90;;;;;;4095760;28;20046;-70
2024/02/23 09:46:36;;;;;;;8.70;1.50;;;8.50;99.90;;;;;;4100151;28;20058;-69
2024/02/23 09:48:37;;;;;;;5.40;0.95;;;8.50;99.90;;;;;;4096972;28;20568;-69
2024/02/23 09:50:39;;;;;;;5.43;1.30;;;8.60;99.90;;;;;;4097207;28;20747;-68
2024/02/23 09:52:40;;;;;;;3.13;1.00;;;8.60;99.90;;;;;;4096430;28;20044;-68
2024/02/23 09:54:41;;;;;;;5.53;1.40;;;8.60;99.90;;;;;;4080987;28;20371;-68
2024/02/23 09:56:42;;;;;;;2.83;1.05;;;8.60;99.90;;;;;;4097548;28;20133;-69
2024/02/23 09:58:44;;;;;;;4.82;1.35;;;8.60;99.90;;;;;;4096583;28;20117;-69
2024/02/23 10:00:44;;;;;;;2.85;0.85;;;8.60;99.90;;;;;;4095847;28;20035;-69
2024/02/23 10:02:45;;;;;;;4.32;1.20;;;8.60;99.90;;;;;;4095163;28;20054;-68
2024/02/23 10:04:48;;;;;;;3.05;0.63;;;8.60;99.90;;;;;;4093815;28;20039;-69
2024/02/23 10:06:49;;;;;;;3.70;0.95;;;8.60;99.90;;;;;;4093252;28;20511;-71
2024/02/23 10:08:49;;;;;;;5.78;1.25;;;8.60;99.90;;;;;;4095440;28;20122;-69
2024/02/23 10:10:51;;;;;;;4.78;1.25;;;8.70;99.90;;;;;;4095665;28;20050;-69
2024/02/23 10:12:51;;;;;;;5.05;1.27;;;8.60;99.90;;;;;;4095164;28;20130;-70
2024/02/23 10:14:53;;;;;;;2.08;0.90;;;8.60;99.90;;;;;;4096006;28;20046;-69
2024/02/23 10:16:55;;;;;;;1.95;0.80;;;8.60;99.90;;;;;;4093562;28;20054;-69
2024/02/23 10:18:57;;;;;;;3.75;0.70;;;8.60;99.90;;;;;;4094805;28;20413;-69
2024/02/23 10:20:58;;;;;;;2.35;0.98;;;8.60;99.90;;;;;;4095137;28;20114;-70
2024/02/23 10:22:59;;;;;;;3.25;0.90;;;8.60;99.90;;;;;;4095003;28;20468;-69
2024/02/23 10:24:59;;;;;;;4.47;1.02;;;8.60;99.90;;;;;;4093665;28;20043;-69
2024/02/23 10:27:01;;;;;;;2.95;1.15;;;8.60;99.90;;;;;;4095037;28;20046;-69
2024/02/23 10:29:03;;;;;;;4.67;1.00;;;8.60;99.90;;;;;;4094885;28;20043;-69
2024/02/23 10:31:04;;;;;;;3.40;1.15;;;8.60;99.90;;;;;;4094432;28;20571;-69
2024/02/23 10:33:05;;;;;;;7.35;1.15;;;8.60;99.90;;;;;;4095571;28;20101;-69
2024/02/23 10:35:16;;;;;;;5.00;0.88;;;8.60;99.90;;;;;;4092758;28;20126;-70
2024/02/23 10:37:16;;;;;;;3.15;1.05;;;8.60;99.90;;;;;;4094342;28;20039;-70
2024/02/23 10:39:21;;;;;;;3.50;0.95;;;8.60;99.90;;;;;;4093478;28;20133;-69
2024/02/23 10:41:22;;;;;;;4.40;1.02;;;8.60;99.90;;;;;;4080567;28;20409;-70